Portada
METAR-TAF:

METAR-TAF

Aeroports :

Mount Isa, Austràlia

latitud: 20-40S, longitud: 139-28E, altitud: 342 m

Observació

L'informe es va fer fa 38 minuts, a les 00:00 UTC
Vent 6 kt del Nord/Nord-Oest, variant entre Oest/Nord-Oest i Nord
Temperatura 31°C
Humitat 43%
Pressió 1013 hPa
Visibilitat 10 km o més

METAR: YBMA 020000Z AUTO 34006KT 300V010 9999 // NCD 31/17 Q1013

Hora: 10:38 (00:38 UTC)

Pronòstic

L'informe es va fer fa 2 hores i 17 minuts, a les 22:21 UTC
Pronòstic vàlid del 02 a les 00 UTC al 02 a les 12 UTC
Vent 8 kt del Nord/Nord-Est
Visibilitat 10 km o més
sense núvols per sota de 1500 mi sense presència de cumulonimbus.

TAF: YBMA 012221Z 0200/0212 02008KT CAVOK

Observacions i pronòstics meteorològics de més de 4000 aeroports (METAR i TAF).

Les estacions disponibles són els punts grocs i vermells al mapa.

Posi el ratolí al punt desitjat per veure el nom de l'estació.

Feu clic per veure les observacions i els pronòstics meteorològics.

Per canviar el mapa: feu clic els botons verds amb una creu de color negre per apropar; al botó verd amb un guió per allunyar la imatge; o en les fletxes verdes per a mapes adjacents.


METAR-TAF: